Time;durP1;ratioP1;P1;durP2;ratioP2;P2;SDS_P1;SDS_P2;PMS_P1;PMS_P2;Temp;Humidity;BMP_temperature;BMP_pressure;BME280_temperature;BME280_humidity;BME280_pressure;Samples;Min_cycle;Max_cycle;Signal;HPM_P1;HPM_P2
2023/01/06 00:00:43;;;;;;;15.60;14.83;;;12.60;99.90;;;;;;5069539;28;20470;-79
2023/01/06 00:03:10;;;;;;;15.27;14.57;;;12.50;99.90;;;;;;5069607;28;20522;-78
2023/01/06 00:05:37;;;;;;;15.00;14.40;;;12.60;99.90;;;;;;5069617;28;20643;-78
2023/01/06 00:08:04;;;;;;;14.87;14.27;;;12.60;99.90;;;;;;5069252;28;20451;-77
2023/01/06 00:10:30;;;;;;;15.20;14.30;;;12.60;99.90;;;;;;5069463;28;20458;-78
2023/01/06 00:12:57;;;;;;;15.87;15.07;;;12.60;99.90;;;;;;5069573;28;20482;-79
2023/01/06 00:15:24;;;;;;;13.20;12.70;;;12.60;99.90;;;;;;5069318;28;20941;-79
2023/01/06 00:17:52;;;;;;;15.00;14.20;;;12.50;99.90;;;;;;5069158;28;20455;-79
2023/01/06 00:20:18;;;;;;;16.00;15.37;;;12.40;99.90;;;;;;5068711;28;20448;-78
2023/01/06 00:22:45;;;;;;;15.10;14.40;;;12.50;99.90;;;;;;5068444;28;20880;-78
2023/01/06 00:25:12;;;;;;;17.30;16.30;;;12.50;99.90;;;;;;5068153;28;20439;-78
2023/01/06 00:27:39;;;;;;;16.50;15.70;;;12.40;99.90;;;;;;5068036;28;20462;-79
2023/01/06 00:30:08;;;;;;;15.60;14.70;;;12.20;99.90;;;;;;5067854;28;20929;-78
2023/01/06 00:32:35;;;;;;;15.67;15.00;;;12.20;99.90;;;;;;5067698;28;20462;-78
2023/01/06 00:35:03;;;;;;;14.40;13.80;;;12.20;99.90;;;;;;5067865;28;20509;-78
2023/01/06 00:37:30;;;;;;;15.17;14.17;;;12.30;99.90;;;;;;5068065;28;20757;-78
2023/01/06 00:39:56;;;;;;;15.43;14.63;;;12.30;99.90;;;;;;5068463;28;20447;-78
2023/01/06 00:42:23;;;;;;;15.87;15.07;;;12.40;99.90;;;;;;5068685;28;20808;-78
2023/01/06 00:44:51;;;;;;;15.67;14.97;;;12.40;99.90;;;;;;5068318;28;20879;-77
2023/01/06 00:47:18;;;;;;;16.00;15.23;;;12.40;99.90;;;;;;5067979;28;20459;-78
2023/01/06 00:49:45;;;;;;;17.07;16.20;;;12.30;99.90;;;;;;5068008;28;20921;-77
2023/01/06 00:52:13;;;;;;;16.80;15.90;;;12.30;99.90;;;;;;5067791;28;20983;-78
2023/01/06 00:54:40;;;;;;;15.60;14.80;;;12.30;99.90;;;;;;5067768;28;20569;-78
2023/01/06 00:57:07;;;;;;;15.60;15.00;;;12.30;99.90;;;;;;5067769;28;20443;-78
2023/01/06 00:59:34;;;;;;;17.53;16.73;;;12.30;99.90;;;;;;5067748;28;20443;-78
2023/01/06 01:02:01;;;;;;;16.80;15.97;;;12.20;99.90;;;;;;5067904;28;20459;-78
2023/01/06 01:04:28;;;;;;;16.47;15.77;;;12.20;99.90;;;;;;5067927;28;20928;-79
2023/01/06 01:06:55;;;;;;;16.53;15.63;;;12.10;99.90;;;;;;5067618;28;20527;-79
2023/01/06 01:09:25;;;;;;;18.07;17.07;;;11.90;99.90;;;;;;5067509;28;20999;-78
2023/01/06 01:12:11;;;;;;;17.13;16.23;;;11.80;99.90;;;;;;5067278;28;21028;-77
2023/01/06 01:14:41;;;;;;;17.60;16.70;;;11.70;99.90;;;;;;5070703;28;20522;-76
2023/01/06 01:17:09;;;;;;;15.97;15.20;;;11.60;99.90;;;;;;5071603;28;20459;-79
2023/01/06 01:19:37;;;;;;;17.30;16.30;;;11.50;99.90;;;;;;5071844;28;20454;-78
2023/01/06 01:22:04;;;;;;;17.67;16.70;;;11.50;99.90;;;;;;5071353;28;20454;-78
2023/01/06 01:24:32;;;;;;;16.63;15.83;;;11.50;99.90;;;;;;5071486;28;20443;-78
2023/01/06 01:26:59;;;;;;;17.40;16.40;;;11.50;99.90;;;;;;5071301;28;20451;-78
2023/01/06 01:29:26;;;;;;;18.70;17.60;;;11.50;99.90;;;;;;5065356;28;20459;-77
2023/01/06 01:31:53;;;;;;;19.83;18.57;;;11.40;99.90;;;;;;5055768;28;20930;-76
2023/01/06 01:34:20;;;;;;;19.00;17.83;;;11.30;99.90;;;;;;5057817;28;20745;-76
2023/01/06 01:36:48;;;;;;;17.20;16.33;;;11.20;99.90;;;;;;5051402;28;20447;-78
2023/01/06 01:39:16;;;;;;;18.13;17.00;;;11.20;99.90;;;;;;5051698;28;20448;-78
2023/01/06 01:41:44;;;;;;;18.10;16.90;;;11.10;99.90;;;;;;5051630;28;20515;-78
2023/01/06 01:44:49;;;;;;;18.87;17.77;;;11.10;99.90;;;;;;5058598;28;20539;-80
2023/01/06 01:47:19;;;;;;;19.57;18.57;;;11.00;99.90;;;;;;5059243;28;20448;-80
2023/01/06 01:49:51;;;;;;;19.00;18.00;;;10.90;99.90;;;;;;5058990;28;20454;-80
2023/01/06 01:52:19;;;;;;;18.40;17.47;;;10.80;99.90;;;;;;5058968;28;20483;-81
2023/01/06 01:54:47;;;;;;;18.90;17.90;;;10.80;99.90;;;;;;5058742;28;20487;-80
2023/01/06 01:57:19;;;;;;;17.50;16.70;;;10.80;99.90;;;;;;5058762;28;20444;-81
2023/01/06 01:59:46;;;;;;;18.50;17.30;;;10.80;99.90;;;;;;5064329;28;20804;-81
2023/01/06 02:02:15;;;;;;;17.43;16.60;;;10.90;99.90;;;;;;5059256;28;20463;-81
2023/01/06 02:04:43;;;;;;;17.80;16.80;;;10.90;99.90;;;;;;5059079;28;20443;-82
2023/01/06 02:07:10;;;;;;;17.30;16.50;;;11.00;99.90;;;;;;5060826;28;20454;-81
2023/01/06 02:09:46;;;;;;;16.97;16.07;;;11.10;99.90;;;;;;5059727;28;20440;-78
2023/01/06 02:12:13;;;;;;;17.80;17.00;;;11.00;99.90;;;;;;5059178;28;20498;-78
2023/01/06 02:14:41;;;;;;;17.10;16.20;;;11.10;99.90;;;;;;5059041;28;20548;-80
2023/01/06 02:17:41;;;;;;;17.37;16.67;;;11.10;99.90;;;;;;5060499;28;20443;-79
2023/01/06 02:20:29;;;;;;;18.30;17.20;;;11.10;99.90;;;;;;5042196;28;20448;-77
2023/01/06 02:23:23;;;;;;;18.17;16.90;;;11.10;99.90;;;;;;5049327;28;20452;-79
2023/01/06 02:26:30;;;;;;;18.53;17.43;;;11.00;99.90;;;;;;5039278;28;20448;-79
2023/01/06 02:29:22;;;;;;;18.77;17.80;;;11.10;99.90;;;;;;5032461;28;20498;-80
2023/01/06 02:32:00;;;;;;;15.50;14.80;;;11.10;99.90;;;;;;5054850;28;20942;-78
2023/01/06 02:34:40;;;;;;;18.17;17.27;;;11.10;99.90;;;;;;5050395;28;20491;-79
2023/01/06 02:37:24;;;;;;;17.83;16.93;;;11.10;99.90;;;;;;5049906;28;20736;-78
2023/01/06 02:40:06;;;;;;;17.30;16.50;;;11.10;99.90;;;;;;5049822;28;20448;-79
2023/01/06 02:42:42;;;;;;;19.17;18.17;;;11.10;99.90;;;;;;5049910;28;20510;-78
2023/01/06 02:45:19;;;;;;;18.43;17.43;;;11.10;99.90;;;;;;5050012;28;20919;-79
2023/01/06 02:47:59;;;;;;;17.20;16.43;;;11.10;99.90;;;;;;5049944;28;20454;-79
2023/01/06 02:50:37;;;;;;;17.60;16.70;;;11.10;99.90;;;;;;5050150;28;20798;-79
2023/01/06 02:53:09;;;;;;;17.87;16.87;;;11.10;99.90;;;;;;5049841;28;20454;-79
2023/01/06 02:55:42;;;;;;;17.03;16.23;;;11.10;99.90;;;;;;5049575;28;20769;-78
2023/01/06 02:58:15;;;;;;;17.07;16.20;;;11.10;99.90;;;;;;5049807;28;20459;-78
2023/01/06 03:00:46;;;;;;;17.03;16.13;;;11.10;99.90;;;;;;5049987;28;20722;-81
2023/01/06 03:03:19;;;;;;;17.80;16.80;;;11.20;99.90;;;;;;5050138;28;20539;-79
2023/01/06 03:05:49;;;;;;;18.93;17.73;;;11.10;99.90;;;;;;5049957;28;20440;-81
2023/01/06 03:08:20;;;;;;;16.87;16.07;;;11.10;99.90;;;;;;5049667;28;20881;-79
2023/01/06 03:10:48;;;;;;;18.03;16.90;;;11.10;99.90;;;;;;5049416;28;20452;-80
2023/01/06 03:13:20;;;;;;;17.37;16.50;;;11.20;99.90;;;;;;5049970;28;20448;-79
2023/01/06 03:15:47;;;;;;;17.83;16.70;;;11.20;99.90;;;;;;5049832;28;20487;-80
2023/01/06 03:18:15;;;;;;;17.90;16.87;;;11.20;99.90;;;;;;5049919;28;20973;-80
2023/01/06 03:20:42;;;;;;;16.90;16.10;;;11.20;99.90;;;;;;5049980;28;20463;-80
2023/01/06 03:23:10;;;;;;;16.60;15.90;;;11.20;99.90;;;;;;5049541;28;20836;-78
2023/01/06 03:25:37;;;;;;;15.97;15.27;;;11.20;99.90;;;;;;5049480;28;20696;-81
2023/01/06 03:28:04;;;;;;;16.07;15.37;;;11.30;99.90;;;;;;5049032;28;20956;-77
2023/01/06 03:30:42;;;;;;;17.53;16.63;;;11.30;99.90;;;;;;5048987;28;20452;-80
2023/01/06 03:33:17;;;;;;;16.93;16.10;;;11.30;99.90;;;;;;5049228;28;20451;-78
2023/01/06 03:35:55;;;;;;;17.10;16.20;;;11.40;99.90;;;;;;5048494;28;20549;-77
2023/01/06 03:38:32;;;;;;;17.73;16.83;;;11.30;99.90;;;;;;5049116;28;20525;-77
2023/01/06 03:41:09;;;;;;;17.90;16.90;;;11.30;99.90;;;;;;5049196;28;20452;-77
2023/01/06 03:43:42;;;;;;;18.73;17.70;;;11.30;99.90;;;;;;5048892;28;20464;-76
2023/01/06 03:46:22;;;;;;;19.10;18.03;;;11.20;99.90;;;;;;5048878;28;20532;-76
2023/01/06 03:49:01;;;;;;;20.63;19.33;;;11.00;99.90;;;;;;5048949;28;20455;-76
2023/01/06 03:51:42;;;;;;;21.50;20.10;;;10.80;99.90;;;;;;5048978;28;20487;-77
2023/01/06 03:54:18;;;;;;;20.23;19.03;;;10.70;99.90;;;;;;5049269;28;20455;-77
2023/01/06 03:56:49;;;;;;;21.23;19.90;;;10.60;99.90;;;;;;5049524;28;20863;-76
2023/01/06 03:59:20;;;;;;;20.43;19.33;;;10.60;99.90;;;;;;5049106;28;20481;-76
2023/01/06 04:01:48;;;;;;;21.00;19.30;;;10.50;99.90;;;;;;5048549;28;20452;-76
2023/01/06 04:04:18;;;;;;;19.67;18.53;;;10.50;99.90;;;;;;5048585;28;20452;-77
2023/01/06 04:06:45;;;;;;;20.83;19.33;;;10.40;99.90;;;;;;5048592;28;20460;-78
2023/01/06 04:09:12;;;;;;;21.50;19.20;;;10.30;99.90;;;;;;5048467;28;20459;-78
2023/01/06 04:14:23;;;;;;;20.37;19.17;;;10.20;99.90;;;;;;5048011;28;20474;-78
2023/01/06 04:16:50;;;;;;;20.50;19.30;;;10.10;99.90;;;;;;5048200;28;20817;-77
2023/01/06 04:19:18;;;;;;;19.60;18.40;;;10.00;99.90;;;;;;5048192;28;20821;-79
2023/01/06 04:21:45;;;;;;;19.97;18.70;;;10.10;99.90;;;;;;5048280;28;20470;-77
2023/01/06 04:24:11;;;;;;;19.77;18.77;;;10.00;99.90;;;;;;5048246;28;20455;-79
2023/01/06 04:26:38;;;;;;;21.20;19.53;;;10.10;99.90;;;;;;5048569;28;20456;-79
2023/01/06 04:29:05;;;;;;;20.07;18.70;;;10.00;99.90;;;;;;5047973;28;20451;-80
2023/01/06 04:31:32;;;;;;;20.40;19.27;;;10.10;99.90;;;;;;5048057;28;20535;-79
2023/01/06 04:33:58;;;;;;;19.50;18.47;;;10.10;99.90;;;;;;5048883;28;20460;-80
2023/01/06 04:36:26;;;;;;;19.83;18.60;;;10.10;99.90;;;;;;5048445;28;20494;-82
2023/01/06 04:38:53;;;;;;;19.70;18.70;;;10.10;99.90;;;;;;5048197;28;20448;-80
2023/01/06 04:41:20;;;;;;;21.23;20.03;;;10.10;99.90;;;;;;5048194;28;20790;-82
2023/01/06 04:43:48;;;;;;;20.90;19.47;;;10.10;99.90;;;;;;5048475;28;20455;-79
2023/01/06 04:46:14;;;;;;;20.07;18.97;;;10.10;99.90;;;;;;5048537;28;20452;-77
2023/01/06 04:48:41;;;;;;;19.00;18.00;;;10.10;99.90;;;;;;5048194;28;20467;-81
2023/01/06 04:51:10;;;;;;;18.57;17.67;;;10.00;99.90;;;;;;5048441;28;21017;-81
2023/01/06 04:53:40;;;;;;;19.87;18.77;;;10.00;99.90;;;;;;5048468;28;20663;-80
2023/01/06 04:56:08;;;;;;;19.70;18.70;;;9.90;99.90;;;;;;5048361;28;20613;-79
2023/01/06 04:58:36;;;;;;;20.37;19.07;;;9.90;99.90;;;;;;5047996;28;20458;-79
2023/01/06 05:01:05;;;;;;;19.60;18.60;;;9.90;99.90;;;;;;5048134;28;20447;-78
2023/01/06 05:03:32;;;;;;;18.93;17.90;;;9.90;99.90;;;;;;5048349;28;20874;-79
2023/01/06 05:06:02;;;;;;;18.97;17.97;;;9.90;99.90;;;;;;5048634;28;20468;-79
2023/01/06 05:08:29;;;;;;;18.80;17.90;;;9.90;99.90;;;;;;5048579;28;20538;-78
2023/01/06 05:11:01;;;;;;;18.80;17.87;;;9.80;99.90;;;;;;5048469;28;20468;-78
2023/01/06 05:13:27;;;;;;;20.17;19.07;;;9.80;99.90;;;;;;5048789;28;20483;-78
2023/01/06 05:15:54;;;;;;;20.93;19.30;;;9.80;99.90;;;;;;5048278;28;20602;-79
2023/01/06 05:18:21;;;;;;;21.20;19.40;;;9.80;99.90;;;;;;5048008;28;20455;-78
2023/01/06 05:20:51;;;;;;;20.30;19.17;;;9.80;99.90;;;;;;5048096;28;20448;-78
2023/01/06 05:23:17;;;;;;;20.50;19.43;;;9.90;99.90;;;;;;5047940;28;20559;-78
2023/01/06 05:25:44;;;;;;;19.93;18.93;;;10.00;99.90;;;;;;5048393;28;20474;-78
2023/01/06 05:28:13;;;;;;;20.20;19.10;;;10.10;99.90;;;;;;5048382;28;20462;-79
2023/01/06 05:30:39;;;;;;;20.00;19.00;;;10.10;99.90;;;;;;5048461;28;20448;-79
2023/01/06 05:33:06;;;;;;;21.17;19.77;;;10.10;99.90;;;;;;5048671;28;20463;-79
2023/01/06 05:35:33;;;;;;;20.90;19.80;;;10.20;99.90;;;;;;5048558;28;20490;-79
2023/01/06 05:38:00;;;;;;;21.03;19.53;;;10.20;99.90;;;;;;5049347;28;20463;-78
2023/01/06 05:40:26;;;;;;;21.37;19.97;;;10.40;99.90;;;;;;5049862;28;20562;-78
2023/01/06 05:42:54;;;;;;;21.07;19.97;;;10.30;99.90;;;;;;5052168;28;20485;-78
2023/01/06 05:45:23;;;;;;;20.50;19.50;;;10.30;99.90;;;;;;5066572;28;20501;-79
2023/01/06 05:47:49;;;;;;;21.43;20.23;;;10.30;99.90;;;;;;5066568;28;20560;-79
2023/01/06 05:50:16;;;;;;;21.60;20.37;;;10.30;99.90;;;;;;5071985;28;20455;-80
2023/01/06 05:52:43;;;;;;;21.40;20.20;;;10.40;99.90;;;;;;5068395;28;20498;-78
2023/01/06 05:55:10;;;;;;;20.23;19.23;;;10.30;99.90;;;;;;5070922;28;20598;-78
2023/01/06 05:57:37;;;;;;;20.27;19.13;;;10.30;99.90;;;;;;5068258;28;20475;-78
2023/01/06 06:00:05;;;;;;;20.80;19.60;;;10.20;99.90;;;;;;5067855;28;20455;-78
2023/01/06 06:02:33;;;;;;;20.47;19.33;;;10.20;99.90;;;;;;5063299;28;20452;-78
2023/01/06 06:05:00;;;;;;;20.40;19.40;;;10.20;99.90;;;;;;5055409;28;20471;-79
2023/01/06 06:07:26;;;;;;;20.23;19.23;;;10.20;99.90;;;;;;5052679;28;20452;-78
2023/01/06 06:09:53;;;;;;;21.70;20.20;;;10.10;99.90;;;;;;5051450;28;20459;-78
2023/01/06 06:12:20;;;;;;;20.10;19.00;;;10.10;99.90;;;;;;5052264;28;20823;-81
2023/01/06 06:14:46;;;;;;;21.40;20.20;;;10.10;99.90;;;;;;5053130;28;20448;-79
2023/01/06 06:17:13;;;;;;;20.83;19.73;;;10.20;99.90;;;;;;5051972;28;20455;-78
2023/01/06 06:19:41;;;;;;;20.93;19.83;;;10.10;99.90;;;;;;5051652;28;20479;-80
2023/01/06 06:22:08;;;;;;;20.97;19.77;;;10.20;99.90;;;;;;5051530;28;20452;-80
2023/01/06 06:24:34;;;;;;;21.30;20.10;;;10.20;99.90;;;;;;5051247;28;20707;-78
2023/01/06 06:27:01;;;;;;;22.20;20.90;;;10.20;99.90;;;;;;5051374;28;20821;-79
2023/01/06 06:29:28;;;;;;;21.20;20.00;;;10.30;99.90;;;;;;5051570;28;20448;-79
2023/01/06 06:31:54;;;;;;;20.40;19.20;;;10.40;99.90;;;;;;5051239;28;20462;-79
2023/01/06 06:34:21;;;;;;;21.23;20.13;;;10.40;99.90;;;;;;5051392;28;20448;-80
2023/01/06 06:36:49;;;;;;;19.80;18.70;;;10.50;99.90;;;;;;5051240;28;20841;-80
2023/01/06 06:39:16;;;;;;;20.23;19.13;;;10.50;99.90;;;;;;5051524;28;20471;-79
2023/01/06 06:41:42;;;;;;;19.37;18.27;;;10.40;99.90;;;;;;5051272;28;20950;-79
2023/01/06 06:44:09;;;;;;;18.97;18.07;;;10.30;99.90;;;;;;5050768;28;20812;-79
2023/01/06 06:46:36;;;;;;;20.10;19.10;;;10.40;99.90;;;;;;5050540;28;20448;-79
2023/01/06 06:49:03;;;;;;;20.37;19.23;;;10.30;99.90;;;;;;5050539;28;20451;-80
2023/01/06 06:51:30;;;;;;;20.40;18.77;;;10.30;99.90;;;;;;5051691;28;20488;-81
2023/01/06 06:53:58;;;;;;;19.10;18.10;;;10.20;99.90;;;;;;5051868;28;20475;-80
2023/01/06 06:56:25;;;;;;;18.23;17.37;;;10.20;99.90;;;;;;5050908;28;20491;-78
2023/01/06 06:58:51;;;;;;;18.70;17.80;;;10.10;99.90;;;;;;5051322;28;20973;-78
2023/01/06 07:01:20;;;;;;;17.90;16.90;;;10.10;99.90;;;;;;5051781;28;20526;-78
2023/01/06 07:03:47;;;;;;;18.63;17.73;;;10.00;99.90;;;;;;5050431;28;20476;-78
2023/01/06 07:06:17;;;;;;;18.00;17.10;;;10.00;99.90;;;;;;5050618;28;20475;-79
2023/01/06 07:08:44;;;;;;;16.80;16.00;;;10.20;99.90;;;;;;5050515;28;20475;-78
2023/01/06 07:11:12;;;;;;;16.23;15.53;;;10.30;99.90;;;;;;5050265;28;20472;-78
2023/01/06 07:13:39;;;;;;;15.73;15.03;;;10.30;99.90;;;;;;5050360;28;20460;-78
2023/01/06 07:16:06;;;;;;;15.87;15.27;;;10.40;99.90;;;;;;5050354;28;20492;-78
2023/01/06 07:18:33;;;;;;;14.07;13.57;;;10.60;99.90;;;;;;5050572;28;20459;-79
2023/01/06 07:21:00;;;;;;;15.70;14.90;;;10.80;99.90;;;;;;5051411;28;20448;-78
2023/01/06 07:23:27;;;;;;;14.67;14.17;;;11.00;99.90;;;;;;5051027;28;20954;-79
2023/01/06 07:25:54;;;;;;;15.70;15.00;;;11.20;99.90;;;;;;5050111;28;20778;-79
2023/01/06 07:28:23;;;;;;;14.47;13.97;;;11.20;99.90;;;;;;5050062;28;20482;-77
2023/01/06 07:30:50;;;;;;;14.30;13.80;;;11.40;99.90;;;;;;5049792;28;20712;-77
2023/01/06 07:33:17;;;;;;;14.70;14.20;;;11.50;99.90;;;;;;5049576;28;20448;-78
2023/01/06 07:35:44;;;;;;;14.60;14.10;;;11.50;99.90;;;;;;5050102;28;20475;-79
2023/01/06 07:38:11;;;;;;;14.40;13.80;;;11.60;99.90;;;;;;5050223;28;20444;-78
2023/01/06 07:40:38;;;;;;;15.10;14.50;;;11.70;99.90;;;;;;5049788;28;20444;-79
2023/01/06 07:43:05;;;;;;;15.50;14.80;;;11.80;99.90;;;;;;5049816;28;20467;-80
2023/01/06 07:45:33;;;;;;;15.07;14.27;;;11.90;99.90;;;;;;5050185;28;20924;-80
2023/01/06 07:48:00;;;;;;;15.10;14.50;;;11.90;99.90;;;;;;5049769;28;20456;-80
2023/01/06 07:50:27;;;;;;;15.23;14.53;;;12.00;99.90;;;;;;5050073;28;20444;-78
2023/01/06 07:52:57;;;;;;;14.93;14.43;;;12.10;99.90;;;;;;5049177;28;20859;-78
2023/01/06 07:55:24;;;;;;;14.77;13.90;;;12.30;99.90;;;;;;5049110;28;20448;-78
2023/01/06 07:57:50;;;;;;;15.40;14.80;;;12.20;99.90;;;;;;5049212;28;20754;-78
2023/01/06 08:00:17;;;;;;;16.07;15.27;;;12.10;99.90;;;;;;5049325;28;20459;-80
2023/01/06 08:02:45;;;;;;;16.10;15.40;;;12.10;99.90;;;;;;5049816;28;20460;-79
2023/01/06 08:05:12;;;;;;;16.23;15.50;;;12.00;99.90;;;;;;5050167;28;20459;-79
2023/01/06 08:07:39;;;;;;;16.53;15.83;;;11.90;99.90;;;;;;5049712;28;20451;-79
2023/01/06 08:10:06;;;;;;;17.00;16.40;;;11.80;99.90;;;;;;5049296;28;20588;-80
2023/01/06 08:12:33;;;;;;;17.33;16.53;;;11.70;99.90;;;;;;5049269;28;20562;-78
2023/01/06 08:15:01;;;;;;;17.20;16.50;;;11.60;99.90;;;;;;5049419;28;20460;-76
2023/01/06 08:17:29;;;;;;;17.97;17.17;;;11.40;99.90;;;;;;5049274;28;20578;-76
2023/01/06 08:19:57;;;;;;;20.90;20.00;;;11.50;99.90;;;;;;5068736;28;20528;-76
2023/01/06 08:22:25;;;;;;;22.97;21.77;;;11.40;99.90;;;;;;5068484;28;20822;-75
2023/01/06 08:24:51;;;;;;;23.07;22.07;;;11.30;99.90;;;;;;5068989;28;20808;-75
2023/01/06 08:27:19;;;;;;;23.10;21.90;;;11.30;99.90;;;;;;5069501;28;20452;-74
2023/01/06 08:29:46;;;;;;;23.07;22.03;;;11.30;99.90;;;;;;5069540;28;20459;-76
2023/01/06 08:32:13;;;;;;;26.37;25.27;;;11.20;99.90;;;;;;5069159;28;20945;-76
2023/01/06 08:34:40;;;;;;;25.90;24.70;;;11.10;99.90;;;;;;5068863;28;20558;-77
2023/01/06 08:37:08;;;;;;;26.17;24.80;;;11.20;99.90;;;;;;5068917;28;20479;-75
2023/01/06 08:39:34;;;;;;;26.93;25.63;;;11.10;99.90;;;;;;5068730;28;20451;-74
2023/01/06 08:42:01;;;;;;;26.07;24.83;;;11.10;99.90;;;;;;5068669;28;20447;-73
2023/01/06 08:44:28;;;;;;;26.10;24.90;;;11.00;99.90;;;;;;5069236;28;20458;-76
2023/01/06 08:46:54;;;;;;;26.10;24.80;;;11.00;99.90;;;;;;5068834;28;20812;-74
2023/01/06 08:49:21;;;;;;;25.90;24.40;;;11.00;99.90;;;;;;5069618;28;20452;-78
2023/01/06 08:51:48;;;;;;;26.50;25.17;;;11.00;99.90;;;;;;5068719;28;20839;-79
2023/01/06 08:54:16;;;;;;;26.87;25.37;;;11.20;99.90;;;;;;5070232;28;20525;-80
2023/01/06 08:56:43;;;;;;;27.57;26.17;;;11.40;99.90;;;;;;5071123;28;20490;-78
2023/01/06 08:59:14;;;;;;;27.53;26.23;;;11.40;99.90;;;;;;5070953;28;20508;-79
2023/01/06 09:01:41;;;;;;;27.60;26.30;;;11.40;99.90;;;;;;5069785;28;20456;-79
2023/01/06 09:04:09;;;;;;;27.93;26.63;;;11.40;99.90;;;;;;5064926;28;20498;-80
2023/01/06 09:06:36;;;;;;;27.40;26.10;;;11.40;99.90;;;;;;5069026;28;20789;-78
2023/01/06 09:09:06;;;;;;;27.27;25.97;;;11.50;99.90;;;;;;5068673;28;20526;-79
2023/01/06 09:11:34;;;;;;;27.80;26.50;;;11.50;99.90;;;;;;5068652;28;20470;-79
2023/01/06 09:14:00;;;;;;;28.27;26.63;;;11.40;99.90;;;;;;5068687;28;20462;-79
2023/01/06 09:16:27;;;;;;;27.80;26.50;;;11.40;99.90;;;;;;5069117;28;20489;-77
2023/01/06 09:18:54;;;;;;;27.90;26.50;;;11.40;99.90;;;;;;5068195;28;20573;-77
2023/01/06 09:21:22;;;;;;;27.60;26.30;;;11.40;99.90;;;;;;5066910;28;20674;-81
2023/01/06 09:23:52;;;;;;;28.20;26.87;;;11.50;99.90;;;;;;5072461;28;20462;-80
2023/01/06 09:26:20;;;;;;;27.30;25.90;;;11.50;99.90;;;;;;5070380;28;20463;-80
2023/01/06 09:28:48;;;;;;;27.80;26.50;;;11.40;99.90;;;;;;5068802;28;20474;-79
2023/01/06 09:31:16;;;;;;;27.60;26.17;;;11.40;99.90;;;;;;5068415;28;20961;-80
2023/01/06 09:33:43;;;;;;;28.23;26.93;;;11.40;99.90;;;;;;5068993;28;20455;-79
2023/01/06 09:36:10;;;;;;;28.53;27.13;;;11.60;99.90;;;;;;5074001;28;20898;-79
2023/01/06 09:38:37;;;;;;;28.07;26.77;;;11.90;99.90;;;;;;5073625;28;20457;-79
2023/01/06 09:41:26;;;;;;;28.50;27.00;;;12.00;99.90;;;;;;5073955;28;20535;-80
2023/01/06 09:44:01;;;;;;;27.70;26.40;;;12.10;99.90;;;;;;5071799;28;20959;-79
2023/01/06 09:46:33;;;;;;;27.43;26.23;;;12.10;99.90;;;;;;5072649;28;20443;-79
2023/01/06 09:49:07;;;;;;;27.30;26.10;;;12.30;99.90;;;;;;5073437;28;20526;-78
2023/01/06 09:51:35;;;;;;;26.87;25.67;;;12.30;99.90;;;;;;5072437;28;20478;-78
2023/01/06 09:54:09;;;;;;;26.40;25.03;;;12.40;99.90;;;;;;5072724;28;20450;-78
2023/01/06 09:56:37;;;;;;;26.60;25.40;;;12.30;99.90;;;;;;5072227;28;20489;-78
2023/01/06 09:59:11;;;;;;;26.20;25.00;;;12.40;99.90;;;;;;5072115;28;20964;-77
2023/01/06 10:01:42;;;;;;;25.20;24.20;;;12.70;99.90;;;;;;5072091;28;20450;-76
2023/01/06 10:04:14;;;;;;;25.37;24.37;;;12.90;99.90;;;;;;5072045;28;20458;-77
2023/01/06 10:06:44;;;;;;;24.30;23.30;;;13.20;99.90;;;;;;5072254;28;20475;-77
2023/01/06 10:09:19;;;;;;;23.17;22.27;;;13.40;99.90;;;;;;5072421;28;20454;-77
2023/01/06 10:11:56;;;;;;;21.87;20.97;;;13.50;99.90;;;;;;5072028;28;20493;-77
2023/01/06 10:14:32;;;;;;;21.53;20.53;;;13.10;99.90;;;;;;5072231;28;20450;-76
2023/01/06 10:17:17;;;;;;;19.40;18.43;;;12.70;99.90;;;;;;5072497;28;20525;-77
2023/01/06 10:19:58;;;;;;;19.00;18.30;;;12.60;99.90;;;;;;5072340;28;20451;-78
2023/01/06 10:22:37;;;;;;;18.50;17.80;;;12.90;99.90;;;;;;5071774;28;20557;-78
2023/01/06 10:25:10;;;;;;;18.33;17.63;;;12.90;99.90;;;;;;5072033;28;20453;-78
2023/01/06 10:27:39;;;;;;;18.13;17.43;;;13.00;99.90;;;;;;5072435;28;20551;-77
2023/01/06 10:30:18;;;;;;;16.77;16.17;;;13.20;99.90;;;;;;5072039;28;20457;-77
2023/01/06 10:32:48;;;;;;;15.87;15.37;;;13.30;99.90;;;;;;5092742;28;20477;-77
2023/01/06 10:35:16;;;;;;;15.83;15.30;;;13.10;99.90;;;;;;5093768;28;20435;-77
2023/01/06 10:37:46;;;;;;;15.30;14.80;;;13.10;99.90;;;;;;5093034;28;20490;-76
2023/01/06 10:40:19;;;;;;;14.70;14.20;;;13.30;99.90;;;;;;5091122;28;20443;-75
2023/01/06 10:42:58;;;;;;;14.80;14.20;;;13.50;99.90;;;;;;5076231;28;20477;-76
2023/01/06 10:45:31;;;;;;;14.60;14.00;;;13.80;99.90;;;;;;5071995;28;20551;-76
2023/01/06 10:47:59;;;;;;;14.50;14.00;;;13.90;99.90;;;;;;5071681;28;20941;-76
2023/01/06 10:50:26;;;;;;;13.87;13.37;;;14.50;99.90;;;;;;5072024;28;20451;-76
2023/01/06 10:52:53;;;;;;;14.40;13.90;;;14.40;99.90;;;;;;5070902;28;20493;-76
2023/01/06 10:55:34;;;;;;;14.93;14.43;;;14.20;99.90;;;;;;5070988;28;20697;-75
2023/01/06 10:58:10;;;;;;;15.53;14.93;;;14.00;99.90;;;;;;5070931;28;20825;-76
2023/01/06 11:00:53;;;;;;;15.43;14.73;;;13.80;99.90;;;;;;5070869;28;20885;-76
2023/01/06 11:03:20;;;;;;;15.90;15.30;;;13.60;99.90;;;;;;5070800;28;21011;-76
2023/01/06 11:05:47;;;;;;;16.40;15.73;;;13.60;99.90;;;;;;5070735;28;20482;-75
2023/01/06 11:08:15;;;;;;;16.40;15.80;;;13.50;99.90;;;;;;5071208;28;20455;-76
2023/01/06 11:10:45;;;;;;;14.90;14.40;;;13.40;99.90;;;;;;5070964;28;20459;-75
2023/01/06 11:13:24;;;;;;;14.60;14.10;;;13.30;99.90;;;;;;5070963;28;20451;-77
2023/01/06 11:15:53;;;;;;;14.87;14.37;;;13.20;99.90;;;;;;5071238;28;20689;-77
2023/01/06 11:18:22;;;;;;;15.00;14.40;;;13.00;99.90;;;;;;5070414;28;21055;-76
2023/01/06 11:21:07;;;;;;;15.13;14.63;;;13.10;99.90;;;;;;5070608;28;20516;-76
2023/01/06 11:23:35;;;;;;;14.40;13.80;;;13.30;99.90;;;;;;5070628;28;20478;-76
2023/01/06 11:26:05;;;;;;;14.37;13.87;;;13.20;99.90;;;;;;5070487;28;20524;-76
2023/01/06 11:28:32;;;;;;;14.67;13.97;;;13.20;99.90;;;;;;5070242;28;20447;-76
2023/01/06 11:31:03;;;;;;;13.40;12.90;;;13.20;99.90;;;;;;5070407;28;20451;-77
2023/01/06 11:33:31;;;;;;;14.53;13.90;;;13.10;99.90;;;;;;5070527;28;20443;-76
2023/01/06 11:36:05;;;;;;;14.60;14.10;;;13.20;99.90;;;;;;5070436;28;20458;-76
2023/01/06 11:38:40;;;;;;;14.53;14.00;;;13.20;99.90;;;;;;5070173;28;20840;-76
2023/01/06 11:41:09;;;;;;;13.50;13.00;;;13.30;99.90;;;;;;5070223;28;20481;-76
2023/01/06 11:43:37;;;;;;;15.40;14.50;;;13.60;99.90;;;;;;5069912;28;20447;-75
2023/01/06 11:46:08;;;;;;;12.37;11.87;;;13.80;99.90;;;;;;5069953;28;20553;-75
2023/01/06 11:48:40;;;;;;;13.07;12.60;;;14.00;99.90;;;;;;5070100;28;20743;-76
2023/01/06 11:51:08;;;;;;;13.30;12.80;;;14.00;99.90;;;;;;5069547;28;20510;-77
2023/01/06 11:53:36;;;;;;;12.57;12.17;;;14.00;99.90;;;;;;5069824;28;20482;-74
2023/01/06 11:56:05;;;;;;;12.80;12.40;;;14.20;99.90;;;;;;5069299;28;20462;-74
2023/01/06 11:58:49;;;;;;;12.33;11.73;;;14.70;99.90;;;;;;5069112;28;21018;-75
2023/01/06 12:01:23;;;;;;;10.77;10.37;;;15.10;99.90;;;;;;5069683;28;20447;-74
2023/01/06 12:03:52;;;;;;;11.80;11.33;;;14.90;99.90;;;;;;5069552;28;20902;-74
2023/01/06 12:06:28;;;;;;;11.27;10.83;;;14.80;99.90;;;;;;5069594;28;20866;-74
2023/01/06 12:09:00;;;;;;;11.40;11.03;;;14.80;99.90;;;;;;5069724;28;20447;-74
2023/01/06 12:11:34;;;;;;;10.80;10.40;;;14.70;99.90;;;;;;5069813;28;20570;-75
2023/01/06 12:14:01;;;;;;;11.50;11.10;;;14.70;99.90;;;;;;5071517;28;20816;-74
2023/01/06 12:16:37;;;;;;;11.23;10.80;;;14.70;99.90;;;;;;5071784;28;20447;-75
2023/01/06 12:19:12;;;;;;;11.13;10.83;;;14.60;99.90;;;;;;5069275;28;20447;-76
2023/01/06 12:21:39;;;;;;;10.20;9.90;;;14.50;99.90;;;;;;5069156;28;20454;-75
2023/01/06 12:24:12;;;;;;;9.70;9.40;;;14.70;99.90;;;;;;5070334;28;20454;-74
2023/01/06 12:26:40;;;;;;;10.20;9.90;;;14.70;99.90;;;;;;5071958;28;20443;-75
2023/01/06 12:29:08;;;;;;;11.03;10.63;;;14.70;99.90;;;;;;5072060;28;20863;-74
2023/01/06 12:31:43;;;;;;;9.47;9.17;;;14.70;99.90;;;;;;5069557;28;20810;-74
2023/01/06 12:34:16;;;;;;;10.90;10.50;;;14.80;99.90;;;;;;5069197;28;20446;-75
2023/01/06 12:36:49;;;;;;;10.23;9.93;;;14.90;99.90;;;;;;5069462;28;20447;-75
2023/01/06 12:39:23;;;;;;;10.13;9.83;;;14.80;99.90;;;;;;5068962;28;20777;-74
2023/01/06 12:41:54;;;;;;;9.93;9.63;;;14.80;99.90;;;;;;5069395;28;20542;-75
2023/01/06 12:44:35;;;;;;;10.90;10.60;;;14.80;99.90;;;;;;5069140;28;20457;-75